Holland, Ohio
Current Conditions -  °F | °C
As of 11:52 PM on Saturday 20 Dec 2014 (Local Time) from KTOL Reporting Station
Broken Clouds Broken Clouds  
Wind Chill: 27°   Ceiling: 3000
Heat Index: 27°   Visibility: 7mi
Dew Point: 23°   Wind: 0mph
Humidity: 85%   Direction: NA
Pressure: 30.28"   Gusts: NA
Location:  41.62°N, 83.71°W
Report Text: KTOL 210452Z AUTO 00000KT 7SM BKN030 M03/M05 A3028 RMK AO2 SLP263 T10281050 410061028
Loading
Personal Weather Stations






























Interactive Weather Map New forecast layout! Learn more

10-Day Weather Forecast

Advertisements
Track Severe Weather on mobile